sensor_id;sensor_type;location;lat;lon;timestamp;temperature;humidity
64143;DHT22;50437;51.970;5.904;2023-07-31T00:02:20;15.40;99.90
64143;DHT22;50437;51.970;5.904;2023-07-31T00:04:46;15.50;99.90
64143;DHT22;50437;51.970;5.904;2023-07-31T00:07:12;15.60;99.90
64143;DHT22;50437;51.970;5.904;2023-07-31T00:09:38;15.70;99.90
64143;DHT22;50437;51.970;5.904;2023-07-31T00:12:04;15.70;99.90
64143;DHT22;50437;51.970;5.904;2023-07-31T00:14:30;15.70;99.90
64143;DHT22;50437;51.970;5.904;2023-07-31T00:16:56;15.70;99.90
64143;DHT22;50437;51.970;5.904;2023-07-31T00:19:22;15.70;99.90
64143;DHT22;50437;51.970;5.904;2023-07-31T00:21:48;15.70;99.90
64143;DHT22;50437;51.970;5.904;2023-07-31T00:24:14;15.90;99.90
64143;DHT22;50437;51.970;5.904;2023-07-31T00:26:39;15.90;99.90
64143;DHT22;50437;51.970;5.904;2023-07-31T00:29:05;15.70;99.90
64143;DHT22;50437;51.970;5.904;2023-07-31T00:31:31;15.70;99.90
64143;DHT22;50437;51.970;5.904;2023-07-31T00:33:57;15.80;99.90
64143;DHT22;50437;51.970;5.904;2023-07-31T00:36:23;15.70;99.90
64143;DHT22;50437;51.970;5.904;2023-07-31T00:38:49;15.70;99.90
64143;DHT22;50437;51.970;5.904;2023-07-31T00:41:15;15.70;99.90
64143;DHT22;50437;51.970;5.904;2023-07-31T00:43:42;15.80;99.90
64143;DHT22;50437;51.970;5.904;2023-07-31T00:46:07;15.80;99.90
64143;DHT22;50437;51.970;5.904;2023-07-31T00:48:34;15.70;99.90
64143;DHT22;50437;51.970;5.904;2023-07-31T00:51:01;15.80;99.90
64143;DHT22;50437;51.970;5.904;2023-07-31T00:53:27;15.80;99.90
64143;DHT22;50437;51.970;5.904;2023-07-31T00:55:53;15.90;99.90
64143;DHT22;50437;51.970;5.904;2023-07-31T00:58:19;15.90;99.90
64143;DHT22;50437;51.970;5.904;2023-07-31T01:00:45;15.90;99.90
64143;DHT22;50437;51.970;5.904;2023-07-31T01:03:11;16.00;99.90
64143;DHT22;50437;51.970;5.904;2023-07-31T01:08:29;16.10;99.90
64143;DHT22;50437;51.970;5.904;2023-07-31T01:11:00;16.20;99.90
64143;DHT22;50437;51.970;5.904;2023-07-31T01:13:28;16.20;99.90
64143;DHT22;50437;51.970;5.904;2023-07-31T01:15:54;16.20;99.90
64143;DHT22;50437;51.970;5.904;2023-07-31T01:18:20;16.30;99.90
64143;DHT22;50437;51.970;5.904;2023-07-31T01:20:47;16.30;99.90
64143;DHT22;50437;51.970;5.904;2023-07-31T01:23:33;16.30;99.90
64143;DHT22;50437;51.970;5.904;2023-07-31T01:26:13;16.30;99.90
64143;DHT22;50437;51.970;5.904;2023-07-31T01:29:01;16.30;99.90
64143;DHT22;50437;51.970;5.904;2023-07-31T01:31:29;16.30;99.90
64143;DHT22;50437;51.970;5.904;2023-07-31T01:33:56;16.40;99.90
64143;DHT22;50437;51.970;5.904;2023-07-31T01:36:23;16.40;99.90
64143;DHT22;50437;51.970;5.904;2023-07-31T01:38:49;16.40;99.90
64143;DHT22;50437;51.970;5.904;2023-07-31T01:41:16;16.40;99.90
64143;DHT22;50437;51.970;5.904;2023-07-31T01:43:42;16.40;99.90
64143;DHT22;50437;51.970;5.904;2023-07-31T01:46:08;16.40;99.90
64143;DHT22;50437;51.970;5.904;2023-07-31T01:48:34;16.40;99.90
64143;DHT22;50437;51.970;5.904;2023-07-31T01:51:02;16.40;99.90
64143;DHT22;50437;51.970;5.904;2023-07-31T01:53:29;16.40;99.90
64143;DHT22;50437;51.970;5.904;2023-07-31T01:55:56;16.30;99.90
64143;DHT22;50437;51.970;5.904;2023-07-31T01:58:21;16.30;99.90
64143;DHT22;50437;51.970;5.904;2023-07-31T02:00:47;16.30;99.90
64143;DHT22;50437;51.970;5.904;2023-07-31T02:03:13;16.30;99.90
64143;DHT22;50437;51.970;5.904;2023-07-31T02:05:46;16.30;99.90
64143;DHT22;50437;51.970;5.904;2023-07-31T02:08:13;16.30;99.90
64143;DHT22;50437;51.970;5.904;2023-07-31T02:10:39;16.30;99.90
64143;DHT22;50437;51.970;5.904;2023-07-31T02:13:05;16.30;99.90
64143;DHT22;50437;51.970;5.904;2023-07-31T02:15:31;16.30;99.90
64143;DHT22;50437;51.970;5.904;2023-07-31T02:17:57;16.30;99.90
64143;DHT22;50437;51.970;5.904;2023-07-31T02:20:25;16.30;99.90
64143;DHT22;50437;51.970;5.904;2023-07-31T02:22:51;16.30;99.90
64143;DHT22;50437;51.970;5.904;2023-07-31T02:25:17;16.20;99.90
64143;DHT22;50437;51.970;5.904;2023-07-31T02:27:45;16.20;99.90
64143;DHT22;50437;51.970;5.904;2023-07-31T02:30:11;16.20;99.90
64143;DHT22;50437;51.970;5.904;2023-07-31T02:32:37;16.10;99.90
64143;DHT22;50437;51.970;5.904;2023-07-31T02:35:03;16.10;99.90
64143;DHT22;50437;51.970;5.904;2023-07-31T02:37:29;16.10;99.90
64143;DHT22;50437;51.970;5.904;2023-07-31T02:39:55;16.10;99.90
64143;DHT22;50437;51.970;5.904;2023-07-31T02:42:21;16.20;99.90
64143;DHT22;50437;51.970;5.904;2023-07-31T02:44:47;16.20;99.90
64143;DHT22;50437;51.970;5.904;2023-07-31T02:47:13;16.20;99.90
64143;DHT22;50437;51.970;5.904;2023-07-31T02:49:39;16.20;99.90
64143;DHT22;50437;51.970;5.904;2023-07-31T02:52:05;16.30;99.90
64143;DHT22;50437;51.970;5.904;2023-07-31T02:54:31;16.20;99.90
64143;DHT22;50437;51.970;5.904;2023-07-31T02:56:57;16.20;99.90
64143;DHT22;50437;51.970;5.904;2023-07-31T02:59:23;16.20;99.90
64143;DHT22;50437;51.970;5.904;2023-07-31T03:01:51;16.20;99.90
64143;DHT22;50437;51.970;5.904;2023-07-31T03:04:16;16.20;99.90
64143;DHT22;50437;51.970;5.904;2023-07-31T03:06:42;16.20;99.90
64143;DHT22;50437;51.970;5.904;2023-07-31T03:09:08;16.20;99.90
64143;DHT22;50437;51.970;5.904;2023-07-31T03:11:34;16.20;99.90
64143;DHT22;50437;51.970;5.904;2023-07-31T03:14:00;16.20;99.90
64143;DHT22;50437;51.970;5.904;2023-07-31T03:16:26;16.20;99.90
64143;DHT22;50437;51.970;5.904;2023-07-31T03:18:52;16.10;99.90
64143;DHT22;50437;51.970;5.904;2023-07-31T03:21:18;16.20;99.90
64143;DHT22;50437;51.970;5.904;2023-07-31T03:23:44;16.20;99.90
64143;DHT22;50437;51.970;5.904;2023-07-31T03:26:10;16.20;99.90
64143;DHT22;50437;51.970;5.904;2023-07-31T03:28:36;16.20;99.90
64143;DHT22;50437;51.970;5.904;2023-07-31T03:31:02;16.10;99.90
64143;DHT22;50437;51.970;5.904;2023-07-31T03:33:29;16.20;99.90
64143;DHT22;50437;51.970;5.904;2023-07-31T03:35:56;16.10;99.90
64143;DHT22;50437;51.970;5.904;2023-07-31T03:38:22;16.10;99.90
64143;DHT22;50437;51.970;5.904;2023-07-31T03:40:48;16.10;99.90
64143;DHT22;50437;51.970;5.904;2023-07-31T03:43:15;16.10;99.90
64143;DHT22;50437;51.970;5.904;2023-07-31T03:45:42;16.10;99.90
64143;DHT22;50437;51.970;5.904;2023-07-31T03:48:08;16.10;99.90
64143;DHT22;50437;51.970;5.904;2023-07-31T03:50:34;16.10;99.90
64143;DHT22;50437;51.970;5.904;2023-07-31T03:53:00;16.10;99.90
64143;DHT22;50437;51.970;5.904;2023-07-31T03:55:26;16.10;99.90
64143;DHT22;50437;51.970;5.904;2023-07-31T03:57:52;16.10;99.90
64143;DHT22;50437;51.970;5.904;2023-07-31T04:00:18;16.20;99.90
64143;DHT22;50437;51.970;5.904;2023-07-31T04:02:44;16.10;99.90
64143;DHT22;50437;51.970;5.904;2023-07-31T04:05:10;16.10;99.90
64143;DHT22;50437;51.970;5.904;2023-07-31T04:07:37;16.10;99.90
64143;DHT22;50437;51.970;5.904;2023-07-31T04:10:03;16.10;99.90
64143;DHT22;50437;51.970;5.904;2023-07-31T04:12:29;16.10;99.90
64143;DHT22;50437;51.970;5.904;2023-07-31T04:14:55;16.10;99.90
64143;DHT22;50437;51.970;5.904;2023-07-31T04:17:21;16.10;99.90
64143;DHT22;50437;51.970;5.904;2023-07-31T04:19:47;16.10;99.90
64143;DHT22;50437;51.970;5.904;2023-07-31T04:22:13;16.10;99.90
64143;DHT22;50437;51.970;5.904;2023-07-31T04:24:39;16.10;99.90
64143;DHT22;50437;51.970;5.904;2023-07-31T04:27:05;16.10;99.90
64143;DHT22;50437;51.970;5.904;2023-07-31T04:29:31;16.10;99.90
64143;DHT22;50437;51.970;5.904;2023-07-31T04:31:57;16.10;99.90
64143;DHT22;50437;51.970;5.904;2023-07-31T04:34:23;16.10;99.90
64143;DHT22;50437;51.970;5.904;2023-07-31T04:36:49;16.20;99.90
64143;DHT22;50437;51.970;5.904;2023-07-31T04:39:15;16.20;99.90
64143;DHT22;50437;51.970;5.904;2023-07-31T04:41:41;16.10;99.90
64143;DHT22;50437;51.970;5.904;2023-07-31T04:44:07;16.20;99.90
64143;DHT22;50437;51.970;5.904;2023-07-31T04:46:33;16.20;99.90
64143;DHT22;50437;51.970;5.904;2023-07-31T04:49:00;16.20;99.90
64143;DHT22;50437;51.970;5.904;2023-07-31T04:51:26;16.20;99.90
64143;DHT22;50437;51.970;5.904;2023-07-31T04:53:52;16.20;99.90
64143;DHT22;50437;51.970;5.904;2023-07-31T04:56:18;16.20;99.90
64143;DHT22;50437;51.970;5.904;2023-07-31T04:58:44;16.30;99.90
64143;DHT22;50437;51.970;5.904;2023-07-31T05:01:10;16.20;99.90
64143;DHT22;50437;51.970;5.904;2023-07-31T05:03:35;16.10;99.90
64143;DHT22;50437;51.970;5.904;2023-07-31T05:06:01;16.10;99.90
64143;DHT22;50437;51.970;5.904;2023-07-31T05:08:28;16.10;99.90
64143;DHT22;50437;51.970;5.904;2023-07-31T05:10:54;16.20;99.90
64143;DHT22;50437;51.970;5.904;2023-07-31T05:13:19;16.20;99.90
64143;DHT22;50437;51.970;5.904;2023-07-31T05:15:46;16.20;99.90
64143;DHT22;50437;51.970;5.904;2023-07-31T05:18:11;16.30;99.90
64143;DHT22;50437;51.970;5.904;2023-07-31T05:20:37;16.20;99.90
64143;DHT22;50437;51.970;5.904;2023-07-31T05:23:03;16.30;99.90
64143;DHT22;50437;51.970;5.904;2023-07-31T05:25:29;16.20;99.90
64143;DHT22;50437;51.970;5.904;2023-07-31T05:28:14;16.20;99.90
64143;DHT22;50437;51.970;5.904;2023-07-31T05:30:40;16.20;99.90
64143;DHT22;50437;51.970;5.904;2023-07-31T05:33:06;16.20;99.90
64143;DHT22;50437;51.970;5.904;2023-07-31T05:35:31;16.20;99.90
64143;DHT22;50437;51.970;5.904;2023-07-31T05:37:57;16.10;99.90
64143;DHT22;50437;51.970;5.904;2023-07-31T05:40:23;16.00;99.90
64143;DHT22;50437;51.970;5.904;2023-07-31T05:42:49;16.00;99.90
64143;DHT22;50437;51.970;5.904;2023-07-31T05:45:15;16.00;99.90
64143;DHT22;50437;51.970;5.904;2023-07-31T05:47:41;16.00;99.90
64143;DHT22;50437;51.970;5.904;2023-07-31T05:50:07;16.00;99.90
64143;DHT22;50437;51.970;5.904;2023-07-31T05:52:33;15.90;99.90
64143;DHT22;50437;51.970;5.904;2023-07-31T05:54:59;15.90;99.90
64143;DHT22;50437;51.970;5.904;2023-07-31T05:57:25;15.90;99.90
64143;DHT22;50437;51.970;5.904;2023-07-31T05:59:51;15.80;99.90
64143;DHT22;50437;51.970;5.904;2023-07-31T06:02:19;15.90;99.90
64143;DHT22;50437;51.970;5.904;2023-07-31T06:04:45;15.90;99.90
64143;DHT22;50437;51.970;5.904;2023-07-31T06:07:10;15.90;99.90
64143;DHT22;50437;51.970;5.904;2023-07-31T06:09:36;15.90;99.90
64143;DHT22;50437;51.970;5.904;2023-07-31T06:12:03;15.90;99.90
64143;DHT22;50437;51.970;5.904;2023-07-31T06:14:29;16.00;99.90
64143;DHT22;50437;51.970;5.904;2023-07-31T06:16:55;16.00;99.90
64143;DHT22;50437;51.970;5.904;2023-07-31T06:19:21;16.10;99.90
64143;DHT22;50437;51.970;5.904;2023-07-31T06:21:47;16.10;99.90
64143;DHT22;50437;51.970;5.904;2023-07-31T06:24:13;16.20;99.90
64143;DHT22;50437;51.970;5.904;2023-07-31T06:26:42;16.20;99.90
64143;DHT22;50437;51.970;5.904;2023-07-31T06:29:08;16.10;99.90
64143;DHT22;50437;51.970;5.904;2023-07-31T06:31:34;16.20;99.90
64143;DHT22;50437;51.970;5.904;2023-07-31T06:33:59;16.20;99.90
64143;DHT22;50437;51.970;5.904;2023-07-31T06:36:26;16.20;99.90
64143;DHT22;50437;51.970;5.904;2023-07-31T06:38:52;16.20;99.90
64143;DHT22;50437;51.970;5.904;2023-07-31T06:41:18;16.20;99.90
64143;DHT22;50437;51.970;5.904;2023-07-31T06:43:44;16.30;99.90
64143;DHT22;50437;51.970;5.904;2023-07-31T06:46:10;16.30;99.90
64143;DHT22;50437;51.970;5.904;2023-07-31T06:48:36;16.40;99.90
64143;DHT22;50437;51.970;5.904;2023-07-31T06:51:03;16.40;99.90
64143;DHT22;50437;51.970;5.904;2023-07-31T06:53:29;16.40;99.90
64143;DHT22;50437;51.970;5.904;2023-07-31T06:55:55;16.50;99.90
64143;DHT22;50437;51.970;5.904;2023-07-31T06:58:21;16.40;99.90
64143;DHT22;50437;51.970;5.904;2023-07-31T07:00:47;16.50;99.90
64143;DHT22;50437;51.970;5.904;2023-07-31T07:03:15;16.50;99.90
64143;DHT22;50437;51.970;5.904;2023-07-31T07:05:41;16.50;99.90
64143;DHT22;50437;51.970;5.904;2023-07-31T07:08:07;16.50;99.90
64143;DHT22;50437;51.970;5.904;2023-07-31T07:10:33;16.50;99.90
64143;DHT22;50437;51.970;5.904;2023-07-31T07:12:59;16.50;99.90
64143;DHT22;50437;51.970;5.904;2023-07-31T07:15:25;16.50;99.90
64143;DHT22;50437;51.970;5.904;2023-07-31T07:17:51;16.50;99.90
64143;DHT22;50437;51.970;5.904;2023-07-31T07:20:17;16.60;99.90
64143;DHT22;50437;51.970;5.904;2023-07-31T07:22:44;16.60;99.90
64143;DHT22;50437;51.970;5.904;2023-07-31T07:25:10;16.70;99.90
64143;DHT22;50437;51.970;5.904;2023-07-31T07:27:36;16.80;99.90
64143;DHT22;50437;51.970;5.904;2023-07-31T07:30:02;16.70;99.90
64143;DHT22;50437;51.970;5.904;2023-07-31T07:32:29;16.70;99.90
64143;DHT22;50437;51.970;5.904;2023-07-31T07:34:55;16.70;99.90
64143;DHT22;50437;51.970;5.904;2023-07-31T07:37:21;16.60;99.90
64143;DHT22;50437;51.970;5.904;2023-07-31T07:39:47;16.70;99.90
64143;DHT22;50437;51.970;5.904;2023-07-31T07:42:13;16.60;99.90
64143;DHT22;50437;51.970;5.904;2023-07-31T07:44:39;16.60;99.90
64143;DHT22;50437;51.970;5.904;2023-07-31T07:47:05;16.60;99.90
64143;DHT22;50437;51.970;5.904;2023-07-31T07:49:34;16.70;99.90
64143;DHT22;50437;51.970;5.904;2023-07-31T07:52:01;16.60;99.90
64143;DHT22;50437;51.970;5.904;2023-07-31T07:54:27;16.60;99.90
64143;DHT22;50437;51.970;5.904;2023-07-31T07:57:12;16.60;99.90
64143;DHT22;50437;51.970;5.904;2023-07-31T07:59:38;16.60;99.90
64143;DHT22;50437;51.970;5.904;2023-07-31T08:02:04;16.60;99.90
64143;DHT22;50437;51.970;5.904;2023-07-31T08:04:30;16.70;99.90
64143;DHT22;50437;51.970;5.904;2023-07-31T08:06:56;16.70;99.90
64143;DHT22;50437;51.970;5.904;2023-07-31T08:09:22;16.80;99.90
64143;DHT22;50437;51.970;5.904;2023-07-31T08:11:48;16.70;99.90
64143;DHT22;50437;51.970;5.904;2023-07-31T08:14:14;16.70;99.90
64143;DHT22;50437;51.970;5.904;2023-07-31T08:16:40;16.70;99.90
64143;DHT22;50437;51.970;5.904;2023-07-31T08:19:05;16.80;99.90
64143;DHT22;50437;51.970;5.904;2023-07-31T08:21:31;16.80;99.90
64143;DHT22;50437;51.970;5.904;2023-07-31T08:23:57;16.80;99.90
64143;DHT22;50437;51.970;5.904;2023-07-31T08:26:23;16.80;99.90
64143;DHT22;50437;51.970;5.904;2023-07-31T08:28:49;16.90;99.90
64143;DHT22;50437;51.970;5.904;2023-07-31T08:31:15;16.90;99.90
64143;DHT22;50437;51.970;5.904;2023-07-31T08:33:41;17.00;99.90
64143;DHT22;50437;51.970;5.904;2023-07-31T08:36:07;17.00;99.90
64143;DHT22;50437;51.970;5.904;2023-07-31T08:38:33;17.00;99.90
64143;DHT22;50437;51.970;5.904;2023-07-31T08:40:59;17.00;99.90
64143;DHT22;50437;51.970;5.904;2023-07-31T08:43:25;17.00;99.90
64143;DHT22;50437;51.970;5.904;2023-07-31T08:45:52;17.10;99.90
64143;DHT22;50437;51.970;5.904;2023-07-31T08:48:19;17.10;99.90
64143;DHT22;50437;51.970;5.904;2023-07-31T08:50:45;17.20;99.90
64143;DHT22;50437;51.970;5.904;2023-07-31T08:53:10;17.20;99.90
64143;DHT22;50437;51.970;5.904;2023-07-31T08:55:38;17.30;99.90
64143;DHT22;50437;51.970;5.904;2023-07-31T08:58:04;17.20;99.90
64143;DHT22;50437;51.970;5.904;2023-07-31T09:00:31;17.30;99.90
64143;DHT22;50437;51.970;5.904;2023-07-31T09:02:59;17.20;99.90
64143;DHT22;50437;51.970;5.904;2023-07-31T09:05:28;17.20;99.90
64143;DHT22;50437;51.970;5.904;2023-07-31T09:07:54;17.30;99.90
64143;DHT22;50437;51.970;5.904;2023-07-31T09:10:21;17.30;99.90
64143;DHT22;50437;51.970;5.904;2023-07-31T09:12:47;17.30;99.90
64143;DHT22;50437;51.970;5.904;2023-07-31T09:15:14;17.30;99.90
64143;DHT22;50437;51.970;5.904;2023-07-31T09:17:40;17.20;99.90
64143;DHT22;50437;51.970;5.904;2023-07-31T09:20:16;17.30;99.90
64143;DHT22;50437;51.970;5.904;2023-07-31T09:22:42;17.20;99.90
64143;DHT22;50437;51.970;5.904;2023-07-31T09:25:22;17.20;99.90
64143;DHT22;50437;51.970;5.904;2023-07-31T09:30:17;17.30;99.90
64143;DHT22;50437;51.970;5.904;2023-07-31T09:32:48;17.30;99.90
64143;DHT22;50437;51.970;5.904;2023-07-31T09:35:30;17.40;99.90
64143;DHT22;50437;51.970;5.904;2023-07-31T09:37:57;17.40;99.90
64143;DHT22;50437;51.970;5.904;2023-07-31T09:40:30;17.40;99.90
64143;DHT22;50437;51.970;5.904;2023-07-31T09:42:57;17.30;99.90
64143;DHT22;50437;51.970;5.904;2023-07-31T09:45:24;17.40;99.90
64143;DHT22;50437;51.970;5.904;2023-07-31T09:47:50;17.30;99.90
64143;DHT22;50437;51.970;5.904;2023-07-31T09:50:16;17.40;99.90
64143;DHT22;50437;51.970;5.904;2023-07-31T09:52:42;17.40;99.90
64143;DHT22;50437;51.970;5.904;2023-07-31T09:55:09;17.40;99.90
64143;DHT22;50437;51.970;5.904;2023-07-31T09:57:39;17.40;99.90
64143;DHT22;50437;51.970;5.904;2023-07-31T10:00:06;17.40;99.90
64143;DHT22;50437;51.970;5.904;2023-07-31T10:02:37;17.50;99.90
64143;DHT22;50437;51.970;5.904;2023-07-31T10:05:04;17.70;99.90
64143;DHT22;50437;51.970;5.904;2023-07-31T10:07:31;17.80;99.90
64143;DHT22;50437;51.970;5.904;2023-07-31T10:10:00;17.80;99.90
64143;DHT22;50437;51.970;5.904;2023-07-31T10:12:26;17.80;99.90
64143;DHT22;50437;51.970;5.904;2023-07-31T10:14:56;17.70;99.90
64143;DHT22;50437;51.970;5.904;2023-07-31T10:17:22;17.80;99.90
64143;DHT22;50437;51.970;5.904;2023-07-31T10:19:51;17.80;99.90
64143;DHT22;50437;51.970;5.904;2023-07-31T10:22:18;17.70;99.90
64143;DHT22;50437;51.970;5.904;2023-07-31T10:24:45;17.80;99.90
64143;DHT22;50437;51.970;5.904;2023-07-31T10:27:11;17.80;99.90
64143;DHT22;50437;51.970;5.904;2023-07-31T10:29:41;18.00;99.90
64143;DHT22;50437;51.970;5.904;2023-07-31T10:32:07;18.10;99.90
64143;DHT22;50437;51.970;5.904;2023-07-31T10:34:38;18.10;99.90
64143;DHT22;50437;51.970;5.904;2023-07-31T10:37:21;18.00;99.90
64143;DHT22;50437;51.970;5.904;2023-07-31T10:39:58;17.90;99.90
64143;DHT22;50437;51.970;5.904;2023-07-31T10:42:34;18.00;99.90
64143;DHT22;50437;51.970;5.904;2023-07-31T10:45:02;18.00;99.90
64143;DHT22;50437;51.970;5.904;2023-07-31T10:47:28;18.10;99.90
64143;DHT22;50437;51.970;5.904;2023-07-31T10:50:11;18.10;99.90
64143;DHT22;50437;51.970;5.904;2023-07-31T10:52:38;18.20;99.90
64143;DHT22;50437;51.970;5.904;2023-07-31T10:55:14;18.30;99.90
64143;DHT22;50437;51.970;5.904;2023-07-31T10:57:40;18.40;99.90
64143;DHT22;50437;51.970;5.904;2023-07-31T11:00:19;18.60;99.90
64143;DHT22;50437;51.970;5.904;2023-07-31T11:03:24;18.50;99.90
64143;DHT22;50437;51.970;5.904;2023-07-31T11:08:16;18.50;99.90
64143;DHT22;50437;51.970;5.904;2023-07-31T11:10:44;18.40;99.90
64143;DHT22;50437;51.970;5.904;2023-07-31T11:13:10;18.40;99.90
64143;DHT22;50437;51.970;5.904;2023-07-31T11:15:36;18.30;99.90
64143;DHT22;50437;51.970;5.904;2023-07-31T11:18:03;18.30;99.90
64143;DHT22;50437;51.970;5.904;2023-07-31T11:20:30;18.40;99.90
64143;DHT22;50437;51.970;5.904;2023-07-31T11:23:03;18.40;99.90
64143;DHT22;50437;51.970;5.904;2023-07-31T11:25:30;18.30;99.90
64143;DHT22;50437;51.970;5.904;2023-07-31T11:28:06;18.20;99.90
64143;DHT22;50437;51.970;5.904;2023-07-31T11:30:32;18.20;99.90
64143;DHT22;50437;51.970;5.904;2023-07-31T11:33:02;18.30;99.90
64143;DHT22;50437;51.970;5.904;2023-07-31T11:35:29;18.30;99.90
64143;DHT22;50437;51.970;5.904;2023-07-31T11:37:55;18.30;99.90
64143;DHT22;50437;51.970;5.904;2023-07-31T11:40:21;18.30;99.90
64143;DHT22;50437;51.970;5.904;2023-07-31T11:42:47;18.40;99.90
64143;DHT22;50437;51.970;5.904;2023-07-31T11:45:13;18.50;99.90
64143;DHT22;50437;51.970;5.904;2023-07-31T11:47:39;18.60;99.90
64143;DHT22;50437;51.970;5.904;2023-07-31T11:50:07;18.70;99.90
64143;DHT22;50437;51.970;5.904;2023-07-31T11:52:37;18.50;99.90
64143;DHT22;50437;51.970;5.904;2023-07-31T11:55:03;18.50;99.90
64143;DHT22;50437;51.970;5.904;2023-07-31T11:57:30;18.60;99.90
64143;DHT22;50437;51.970;5.904;2023-07-31T11:59:56;18.40;99.90
64143;DHT22;50437;51.970;5.904;2023-07-31T12:02:22;18.40;99.90
64143;DHT22;50437;51.970;5.904;2023-07-31T12:04:49;18.50;99.90
64143;DHT22;50437;51.970;5.904;2023-07-31T12:07:15;18.50;99.90
64143;DHT22;50437;51.970;5.904;2023-07-31T12:09:53;18.50;99.90
64143;DHT22;50437;51.970;5.904;2023-07-31T12:12:20;18.50;99.90
64143;DHT22;50437;51.970;5.904;2023-07-31T12:14:47;18.60;99.90
64143;DHT22;50437;51.970;5.904;2023-07-31T12:17:13;18.70;99.90
64143;DHT22;50437;51.970;5.904;2023-07-31T12:19:39;18.70;99.90
64143;DHT22;50437;51.970;5.904;2023-07-31T12:22:13;18.60;99.90
64143;DHT22;50437;51.970;5.904;2023-07-31T12:24:39;18.70;99.90
64143;DHT22;50437;51.970;5.904;2023-07-31T12:27:12;18.70;99.90
64143;DHT22;50437;51.970;5.904;2023-07-31T12:29:38;18.80;99.90
64143;DHT22;50437;51.970;5.904;2023-07-31T12:32:17;18.80;99.90
64143;DHT22;50437;51.970;5.904;2023-07-31T12:34:44;18.70;99.90
64143;DHT22;50437;51.970;5.904;2023-07-31T12:37:10;18.70;99.90
64143;DHT22;50437;51.970;5.904;2023-07-31T12:39:36;18.60;99.90
64143;DHT22;50437;51.970;5.904;2023-07-31T12:42:02;18.50;99.90
64143;DHT22;50437;51.970;5.904;2023-07-31T12:44:28;18.40;99.90
64143;DHT22;50437;51.970;5.904;2023-07-31T12:46:54;18.40;99.90
64143;DHT22;50437;51.970;5.904;2023-07-31T12:49:20;18.40;99.90
64143;DHT22;50437;51.970;5.904;2023-07-31T12:51:46;18.30;99.90
64143;DHT22;50437;51.970;5.904;2023-07-31T12:54:12;18.30;99.90
64143;DHT22;50437;51.970;5.904;2023-07-31T12:56:38;18.20;99.90
64143;DHT22;50437;51.970;5.904;2023-07-31T12:59:04;18.10;99.90
64143;DHT22;50437;51.970;5.904;2023-07-31T13:01:30;18.10;99.90
64143;DHT22;50437;51.970;5.904;2023-07-31T13:03:56;18.10;99.90
64143;DHT22;50437;51.970;5.904;2023-07-31T13:06:22;18.30;99.90
64143;DHT22;50437;51.970;5.904;2023-07-31T13:08:48;18.40;99.90
64143;DHT22;50437;51.970;5.904;2023-07-31T13:11:13;18.40;99.90
64143;DHT22;50437;51.970;5.904;2023-07-31T13:13:40;18.60;99.90
64143;DHT22;50437;51.970;5.904;2023-07-31T13:16:06;18.70;99.90
64143;DHT22;50437;51.970;5.904;2023-07-31T13:18:32;18.70;99.90
64143;DHT22;50437;51.970;5.904;2023-07-31T13:20:58;18.80;99.90
64143;DHT22;50437;51.970;5.904;2023-07-31T13:23:24;18.80;99.90
64143;DHT22;50437;51.970;5.904;2023-07-31T13:25:50;18.70;99.90
64143;DHT22;50437;51.970;5.904;2023-07-31T13:28:16;18.70;99.90
64143;DHT22;50437;51.970;5.904;2023-07-31T13:30:42;18.70;99.90
64143;DHT22;50437;51.970;5.904;2023-07-31T13:33:08;18.90;99.90
64143;DHT22;50437;51.970;5.904;2023-07-31T13:35:34;18.90;99.90
64143;DHT22;50437;51.970;5.904;2023-07-31T13:38:00;18.90;99.90
64143;DHT22;50437;51.970;5.904;2023-07-31T13:40:26;19.00;99.90
64143;DHT22;50437;51.970;5.904;2023-07-31T13:42:52;19.00;99.90
64143;DHT22;50437;51.970;5.904;2023-07-31T13:45:19;18.80;99.90
64143;DHT22;50437;51.970;5.904;2023-07-31T13:47:45;18.90;99.90
64143;DHT22;50437;51.970;5.904;2023-07-31T13:50:11;18.70;99.90
64143;DHT22;50437;51.970;5.904;2023-07-31T13:52:37;18.70;99.90
64143;DHT22;50437;51.970;5.904;2023-07-31T13:55:04;18.70;99.90
64143;DHT22;50437;51.970;5.904;2023-07-31T13:57:30;18.60;99.90
64143;DHT22;50437;51.970;5.904;2023-07-31T13:59:56;18.70;99.90
64143;DHT22;50437;51.970;5.904;2023-07-31T14:02:22;18.80;99.90
64143;DHT22;50437;51.970;5.904;2023-07-31T14:04:48;18.80;99.90
64143;DHT22;50437;51.970;5.904;2023-07-31T14:07:14;18.80;99.90
64143;DHT22;50437;51.970;5.904;2023-07-31T14:09:40;18.70;99.90
64143;DHT22;50437;51.970;5.904;2023-07-31T14:12:06;18.70;99.90
64143;DHT22;50437;51.970;5.904;2023-07-31T14:14:32;18.70;99.90
64143;DHT22;50437;51.970;5.904;2023-07-31T14:17:01;18.60;99.90
64143;DHT22;50437;51.970;5.904;2023-07-31T14:19:27;18.60;99.90
64143;DHT22;50437;51.970;5.904;2023-07-31T14:21:53;18.60;99.90
64143;DHT22;50437;51.970;5.904;2023-07-31T14:24:19;18.60;99.90
64143;DHT22;50437;51.970;5.904;2023-07-31T14:26:45;18.60;99.90
64143;DHT22;50437;51.970;5.904;2023-07-31T14:29:11;18.60;99.90
64143;DHT22;50437;51.970;5.904;2023-07-31T14:31:37;18.60;99.90
64143;DHT22;50437;51.970;5.904;2023-07-31T14:34:02;18.60;99.90
64143;DHT22;50437;51.970;5.904;2023-07-31T14:36:29;18.50;99.90
64143;DHT22;50437;51.970;5.904;2023-07-31T14:38:54;18.60;99.90
64143;DHT22;50437;51.970;5.904;2023-07-31T14:41:20;18.50;99.90
64143;DHT22;50437;51.970;5.904;2023-07-31T14:43:46;18.50;99.90
64143;DHT22;50437;51.970;5.904;2023-07-31T14:46:12;18.50;99.90
64143;DHT22;50437;51.970;5.904;2023-07-31T14:48:39;18.40;99.90
64143;DHT22;50437;51.970;5.904;2023-07-31T14:51:05;18.30;99.90
64143;DHT22;50437;51.970;5.904;2023-07-31T14:53:31;18.30;99.90
64143;DHT22;50437;51.970;5.904;2023-07-31T14:55:57;18.30;99.90
64143;DHT22;50437;51.970;5.904;2023-07-31T14:58:24;18.30;99.90
64143;DHT22;50437;51.970;5.904;2023-07-31T15:00:50;18.30;99.90
64143;DHT22;50437;51.970;5.904;2023-07-31T15:03:19;18.30;99.90
64143;DHT22;50437;51.970;5.904;2023-07-31T15:05:45;18.20;99.90
64143;DHT22;50437;51.970;5.904;2023-07-31T15:08:11;18.20;99.90
64143;DHT22;50437;51.970;5.904;2023-07-31T15:10:37;18.20;99.90
64143;DHT22;50437;51.970;5.904;2023-07-31T15:13:03;18.10;99.90
64143;DHT22;50437;51.970;5.904;2023-07-31T15:15:29;18.30;99.90
64143;DHT22;50437;51.970;5.904;2023-07-31T15:17:56;18.30;99.90
64143;DHT22;50437;51.970;5.904;2023-07-31T15:20:23;18.30;99.90
64143;DHT22;50437;51.970;5.904;2023-07-31T15:22:49;18.20;99.90
64143;DHT22;50437;51.970;5.904;2023-07-31T15:25:15;18.30;99.90
64143;DHT22;50437;51.970;5.904;2023-07-31T15:27:42;18.30;99.90
64143;DHT22;50437;51.970;5.904;2023-07-31T15:30:08;18.30;99.90
64143;DHT22;50437;51.970;5.904;2023-07-31T15:32:36;18.30;99.90
64143;DHT22;50437;51.970;5.904;2023-07-31T15:35:03;18.30;99.90
64143;DHT22;50437;51.970;5.904;2023-07-31T15:37:29;18.30;99.90